sensor_id;sensor_type;location;lat;lon;timestamp;temperature;humidity
38221;DHT22;24023;51.280;7.148;2022-09-21T00:00:11;10.7;99.9
38221;DHT22;24023;51.280;7.148;2022-09-21T00:05:07;10.7;99.9
38221;DHT22;24023;51.280;7.148;2022-09-21T00:10:09;10.7;99.9
38221;DHT22;24023;51.280;7.148;2022-09-21T00:15:09;10.2;99.9
38221;DHT22;24023;51.280;7.148;2022-09-21T00:20:09;10.2;99.9
38221;DHT22;24023;51.280;7.148;2022-09-21T00:25:08;10.1;99.9
38221;DHT22;24023;51.280;7.148;2022-09-21T00:30:10;10.1;99.9
38221;DHT22;24023;51.280;7.148;2022-09-21T00:35:07;10.1;99.9
38221;DHT22;24023;51.280;7.148;2022-09-21T00:40:08;9.5;99.9
38221;DHT22;24023;51.280;7.148;2022-09-21T00:45:20;9.5;99.9
38221;DHT22;24023;51.280;7.148;2022-09-21T00:50:13;9.6;99.9
38221;DHT22;24023;51.280;7.148;2022-09-21T00:55:11;9.6;99.9
38221;DHT22;24023;51.280;7.148;2022-09-21T01:00:11;9.6;99.9
38221;DHT22;24023;51.280;7.148;2022-09-21T01:05:08;9.5;99.9
38221;DHT22;24023;51.280;7.148;2022-09-21T01:10:11;9.5;99.9
38221;DHT22;24023;51.280;7.148;2022-09-21T01:15:18;9.5;99.9
38221;DHT22;24023;51.280;7.148;2022-09-21T01:20:57;9.5;99.9
38221;DHT22;24023;51.280;7.148;2022-09-21T01:25:12;9.5;99.9
38221;DHT22;24023;51.280;7.148;2022-09-21T01:30:12;9.5;99.9
38221;DHT22;24023;51.280;7.148;2022-09-21T01:35:09;9.5;99.9
38221;DHT22;24023;51.280;7.148;2022-09-21T01:40:12;9.7;99.9
38221;DHT22;24023;51.280;7.148;2022-09-21T01:45:11;9.7;99.9
38221;DHT22;24023;51.280;7.148;2022-09-21T01:50:09;9.3;99.9
38221;DHT22;24023;51.280;7.148;2022-09-21T01:55:11;9.3;99.9
38221;DHT22;24023;51.280;7.148;2022-09-21T02:00:11;9.3;99.9
38221;DHT22;24023;51.280;7.148;2022-09-21T02:05:10;9.3;99.9
38221;DHT22;24023;51.280;7.148;2022-09-21T02:10:12;9.3;99.9
38221;DHT22;24023;51.280;7.148;2022-09-21T02:15:09;9.4;99.9
38221;DHT22;24023;51.280;7.148;2022-09-21T02:20:16;9.4;99.9
38221;DHT22;24023;51.280;7.148;2022-09-21T02:25:09;9.4;99.9
38221;DHT22;24023;51.280;7.148;2022-09-21T02:30:14;9.3;99.9
38221;DHT22;24023;51.280;7.148;2022-09-21T02:35:13;9.3;99.9
38221;DHT22;24023;51.280;7.148;2022-09-21T02:40:14;8.9;99.9
38221;DHT22;24023;51.280;7.148;2022-09-21T02:45:14;8.9;99.9
38221;DHT22;24023;51.280;7.148;2022-09-21T02:50:11;9.2;99.9
38221;DHT22;24023;51.280;7.148;2022-09-21T02:55:07;9.2;99.9
38221;DHT22;24023;51.280;7.148;2022-09-21T03:00:11;9.2;99.9
38221;DHT22;24023;51.280;7.148;2022-09-21T03:05:09;8.6;99.9
38221;DHT22;24023;51.280;7.148;2022-09-21T03:10:09;8.6;99.9
38221;DHT22;24023;51.280;7.148;2022-09-21T03:15:08;8.8;99.9
38221;DHT22;24023;51.280;7.148;2022-09-21T03:20:08;8.8;99.9
38221;DHT22;24023;51.280;7.148;2022-09-21T03:25:08;8.8;99.9
38221;DHT22;24023;51.280;7.148;2022-09-21T03:30:10;9.1;99.9
38221;DHT22;24023;51.280;7.148;2022-09-21T03:35:08;9.1;99.9
38221;DHT22;24023;51.280;7.148;2022-09-21T03:40:09;9.2;99.9
38221;DHT22;24023;51.280;7.148;2022-09-21T03:45:11;9.2;99.9
38221;DHT22;24023;51.280;7.148;2022-09-21T03:50:09;9.2;99.9
38221;DHT22;24023;51.280;7.148;2022-09-21T03:55:08;8.9;99.9
38221;DHT22;24023;51.280;7.148;2022-09-21T04:00:13;8.9;99.9
38221;DHT22;24023;51.280;7.148;2022-09-21T04:05:09;8.5;99.9
38221;DHT22;24023;51.280;7.148;2022-09-21T04:10:10;8.5;99.9
38221;DHT22;24023;51.280;7.148;2022-09-21T04:15:08;8.5;99.9
38221;DHT22;24023;51.280;7.148;2022-09-21T04:20:08;8.7;99.9
38221;DHT22;24023;51.280;7.148;2022-09-21T04:25:09;8.7;99.9
38221;DHT22;24023;51.280;7.148;2022-09-21T04:30:11;8.8;99.9
38221;DHT22;24023;51.280;7.148;2022-09-21T04:35:12;8.8;99.9
38221;DHT22;24023;51.280;7.148;2022-09-21T04:40:15;8.7;99.9
38221;DHT22;24023;51.280;7.148;2022-09-21T04:45:11;8.7;99.9
38221;DHT22;24023;51.280;7.148;2022-09-21T04:50:08;8.7;99.9
38221;DHT22;24023;51.280;7.148;2022-09-21T04:55:07;9.0;99.7
38221;DHT22;24023;51.280;7.148;2022-09-21T05:00:12;9.0;99.7
38221;DHT22;24023;51.280;7.148;2022-09-21T05:05:07;8.6;99.9
38221;DHT22;24023;51.280;7.148;2022-09-21T05:10:11;8.6;99.9
38221;DHT22;24023;51.280;7.148;2022-09-21T05:15:08;8.6;99.9
38221;DHT22;24023;51.280;7.148;2022-09-21T05:20:09;8.6;99.9
38221;DHT22;24023;51.280;7.148;2022-09-21T05:25:07;8.6;99.9
38221;DHT22;24023;51.280;7.148;2022-09-21T05:30:10;8.6;99.9
38221;DHT22;24023;51.280;7.148;2022-09-21T05:35:11;8.5;99.9
38221;DHT22;24023;51.280;7.148;2022-09-21T05:40:09;8.5;99.9
38221;DHT22;24023;51.280;7.148;2022-09-21T05:45:13;9.2;99.9
38221;DHT22;24023;51.280;7.148;2022-09-21T05:50:20;9.2;99.9
38221;DHT22;24023;51.280;7.148;2022-09-21T05:55:14;9.2;99.9
38221;DHT22;24023;51.280;7.148;2022-09-21T06:00:15;9.0;99.9
38221;DHT22;24023;51.280;7.148;2022-09-21T06:05:09;9.0;99.9
38221;DHT22;24023;51.280;7.148;2022-09-21T06:10:10;9.0;99.9
38221;DHT22;24023;51.280;7.148;2022-09-21T06:15:11;9.1;99.9
38221;DHT22;24023;51.280;7.148;2022-09-21T06:20:08;9.1;99.9
38221;DHT22;24023;51.280;7.148;2022-09-21T06:25:07;9.9;99.9
38221;DHT22;24023;51.280;7.148;2022-09-21T06:30:11;9.9;99.9
38221;DHT22;24023;51.280;7.148;2022-09-21T06:35:07;9.9;99.9
38221;DHT22;24023;51.280;7.148;2022-09-21T06:40:08;10.1;99.9
38221;DHT22;24023;51.280;7.148;2022-09-21T06:45:10;10.1;99.9
38221;DHT22;24023;51.280;7.148;2022-09-21T06:50:08;10.8;99.9
38221;DHT22;24023;51.280;7.148;2022-09-21T06:55:07;10.8;99.9
38221;DHT22;24023;51.280;7.148;2022-09-21T07:00:12;11.1;99.9
38221;DHT22;24023;51.280;7.148;2022-09-21T07:05:07;11.1;99.9
38221;DHT22;24023;51.280;7.148;2022-09-21T07:10:08;11.1;99.9
38221;DHT22;24023;51.280;7.148;2022-09-21T07:15:08;11.5;99.9
38221;DHT22;24023;51.280;7.148;2022-09-21T07:20:08;11.5;99.9
38221;DHT22;24023;51.280;7.148;2022-09-21T07:25:07;12.2;99.9
38221;DHT22;24023;51.280;7.148;2022-09-21T07:30:10;12.2;99.9
38221;DHT22;24023;51.280;7.148;2022-09-21T07:35:07;12.2;99.9
38221;DHT22;24023;51.280;7.148;2022-09-21T07:40:09;12.7;99.1
38221;DHT22;24023;51.280;7.148;2022-09-21T07:45:10;12.7;99.1
38221;DHT22;24023;51.280;7.148;2022-09-21T07:50:08;12.6;99.8
38221;DHT22;24023;51.280;7.148;2022-09-21T07:55:06;12.6;99.8
38221;DHT22;24023;51.280;7.148;2022-09-21T08:00:12;13.0;98.3
38221;DHT22;24023;51.280;7.148;2022-09-21T08:05:07;13.0;98.3
38221;DHT22;24023;51.280;7.148;2022-09-21T08:10:09;13.0;98.3
38221;DHT22;24023;51.280;7.148;2022-09-21T08:15:08;13.6;97.9
38221;DHT22;24023;51.280;7.148;2022-09-21T08:20:09;13.9;96.3
38221;DHT22;24023;51.280;7.148;2022-09-21T08:25:07;13.9;96.3
38221;DHT22;24023;51.280;7.148;2022-09-21T08:30:09;13.9;96.3
38221;DHT22;24023;51.280;7.148;2022-09-21T08:35:07;14.2;95.4
38221;DHT22;24023;51.280;7.148;2022-09-21T08:40:09;14.2;95.4
38221;DHT22;24023;51.280;7.148;2022-09-21T08:45:15;14.6;95.5
38221;DHT22;24023;51.280;7.148;2022-09-21T08:50:22;14.6;95.5
38221;DHT22;24023;51.280;7.148;2022-09-21T08:55:15;15.0;93.1
38221;DHT22;24023;51.280;7.148;2022-09-21T09:00:14;15.0;93.1
38221;DHT22;24023;51.280;7.148;2022-09-21T09:05:20;15.2;91.2
38221;DHT22;24023;51.280;7.148;2022-09-21T09:10:24;15.2;91.2
38221;DHT22;24023;51.280;7.148;2022-09-21T09:15:22;15.2;91.2
38221;DHT22;24023;51.280;7.148;2022-09-21T09:20:12;15.9;90.1
38221;DHT22;24023;51.280;7.148;2022-09-21T09:25:16;15.9;90.1
38221;DHT22;24023;51.280;7.148;2022-09-21T09:30:15;16.6;88.4
38221;DHT22;24023;51.280;7.148;2022-09-21T09:35:25;16.9;86.3
38221;DHT22;24023;51.280;7.148;2022-09-21T09:40:11;17.0;83.6
38221;DHT22;24023;51.280;7.148;2022-09-21T09:45:22;17.5;80.3
38221;DHT22;24023;51.280;7.148;2022-09-21T09:50:11;17.2;85.4
38221;DHT22;24023;51.280;7.148;2022-09-21T09:55:14;17.3;83.0
38221;DHT22;24023;51.280;7.148;2022-09-21T10:00:14;17.8;80.6
38221;DHT22;24023;51.280;7.148;2022-09-21T10:05:18;18.2;79.1
38221;DHT22;24023;51.280;7.148;2022-09-21T10:10:25;18.9;74.2
38221;DHT22;24023;51.280;7.148;2022-09-21T10:15:09;19.0;78.8
38221;DHT22;24023;51.280;7.148;2022-09-21T10:20:15;19.3;76.2
38221;DHT22;24023;51.280;7.148;2022-09-21T10:25:14;19.3;73.5
38221;DHT22;24023;51.280;7.148;2022-09-21T10:30:30;19.6;74.4
38221;DHT22;24023;51.280;7.148;2022-09-21T10:35:16;19.7;78.5
38221;DHT22;24023;51.280;7.148;2022-09-21T10:40:23;19.7;72.2
38221;DHT22;24023;51.280;7.148;2022-09-21T10:45:14;18.8;76.7
38221;DHT22;24023;51.280;7.148;2022-09-21T10:50:22;18.7;78.9
38221;DHT22;24023;51.280;7.148;2022-09-21T10:55:14;18.5;78.5
38221;DHT22;24023;51.280;7.148;2022-09-21T11:00:26;17.9;75.8
38221;DHT22;24023;51.280;7.148;2022-09-21T11:05:11;17.6;80.3
38221;DHT22;24023;51.280;7.148;2022-09-21T11:10:15;17.4;79.5
38221;DHT22;24023;51.280;7.148;2022-09-21T11:15:15;17.0;78.7
38221;DHT22;24023;51.280;7.148;2022-09-21T11:20:19;16.9;80.9
38221;DHT22;24023;51.280;7.148;2022-09-21T11:25:22;16.8;85.7
38221;DHT22;24023;51.280;7.148;2022-09-21T11:30:12;16.9;85.0
38221;DHT22;24023;51.280;7.148;2022-09-21T11:35:20;16.9;85.9
38221;DHT22;24023;51.280;7.148;2022-09-21T11:40:21;16.9;83.1
38221;DHT22;24023;51.280;7.148;2022-09-21T11:45:21;16.8;85.3
38221;DHT22;24023;51.280;7.148;2022-09-21T11:50:21;17.0;86.0
38221;DHT22;24023;51.280;7.148;2022-09-21T11:55:19;17.0;81.9
38221;DHT22;24023;51.280;7.148;2022-09-21T12:00:17;17.3;83.4
38221;DHT22;24023;51.280;7.148;2022-09-21T12:05:14;17.2;80.4
38221;DHT22;24023;51.280;7.148;2022-09-21T12:10:17;17.3;75.6
38221;DHT22;24023;51.280;7.148;2022-09-21T12:15:11;17.2;72.9
38221;DHT22;24023;51.280;7.148;2022-09-21T12:20:16;17.3;75.0
38221;DHT22;24023;51.280;7.148;2022-09-21T12:25:13;17.3;78.6
38221;DHT22;24023;51.280;7.148;2022-09-21T12:30:12;17.1;79.0
38221;DHT22;24023;51.280;7.148;2022-09-21T12:35:13;17.2;78.2
38221;DHT22;24023;51.280;7.148;2022-09-21T12:40:16;17.1;79.4
38221;DHT22;24023;51.280;7.148;2022-09-21T12:45:16;17.3;80.9
38221;DHT22;24023;51.280;7.148;2022-09-21T12:50:15;17.3;78.6
38221;DHT22;24023;51.280;7.148;2022-09-21T12:55:20;17.5;78.1
38221;DHT22;24023;51.280;7.148;2022-09-21T13:00:14;17.3;76.3
38221;DHT22;24023;51.280;7.148;2022-09-21T13:05:12;16.9;73.7
38221;DHT22;24023;51.280;7.148;2022-09-21T13:10:14;16.8;74.7
38221;DHT22;24023;51.280;7.148;2022-09-21T13:15:13;16.8;74.7
38221;DHT22;24023;51.280;7.148;2022-09-21T13:20:16;16.8;74.7
38221;DHT22;24023;51.280;7.148;2022-09-21T13:25:18;16.7;75.7
38221;DHT22;24023;51.280;7.148;2022-09-21T13:30:29;16.6;78.1
38221;DHT22;24023;51.280;7.148;2022-09-21T13:36:28;16.6;79.4
38221;DHT22;24023;51.280;7.148;2022-09-21T13:40:32;16.7;81.2
38221;DHT22;24023;51.280;7.148;2022-09-21T13:45:51;16.7;81.2
38221;DHT22;24023;51.280;7.148;2022-09-21T13:50:11;17.2;77.2
38221;DHT22;24023;51.280;7.148;2022-09-21T13:55:22;17.7;72.8
38221;DHT22;24023;51.280;7.148;2022-09-21T14:00:50;18.1;70.1
38221;DHT22;24023;51.280;7.148;2022-09-21T14:05:24;18.9;67.1
38221;DHT22;24023;51.280;7.148;2022-09-21T14:10:18;18.9;67.1
38221;DHT22;24023;51.280;7.148;2022-09-21T14:15:31;19.3;66.0
38221;DHT22;24023;51.280;7.148;2022-09-21T14:20:26;18.4;69.6
38221;DHT22;24023;51.280;7.148;2022-09-21T14:30:17;17.7;74.1
38221;DHT22;24023;51.280;7.148;2022-09-21T14:35:14;17.6;71.6
38221;DHT22;24023;51.280;7.148;2022-09-21T14:40:16;17.4;73.9
38221;DHT22;24023;51.280;7.148;2022-09-21T14:45:15;17.4;73.0
38221;DHT22;24023;51.280;7.148;2022-09-21T14:50:18;17.5;75.1
38221;DHT22;24023;51.280;7.148;2022-09-21T14:55:15;17.3;75.9
38221;DHT22;24023;51.280;7.148;2022-09-21T15:00:18;17.3;75.4
38221;DHT22;24023;51.280;7.148;2022-09-21T15:05:16;17.3;75.4
38221;DHT22;24023;51.280;7.148;2022-09-21T15:11:19;17.2;73.3
38221;DHT22;24023;51.280;7.148;2022-09-21T15:15:20;17.1;73.5
38221;DHT22;24023;51.280;7.148;2022-09-21T15:20:15;17.1;73.5
38221;DHT22;24023;51.280;7.148;2022-09-21T15:25:11;16.9;75.6
38221;DHT22;24023;51.280;7.148;2022-09-21T15:30:24;16.7;76.0
38221;DHT22;24023;51.280;7.148;2022-09-21T15:35:17;16.5;75.5
38221;DHT22;24023;51.280;7.148;2022-09-21T15:40:20;16.4;73.8
38221;DHT22;24023;51.280;7.148;2022-09-21T15:45:14;16.4;73.8
38221;DHT22;24023;51.280;7.148;2022-09-21T15:50:11;16.2;74.0
38221;DHT22;24023;51.280;7.148;2022-09-21T15:55:12;16.0;75.8
38221;DHT22;24023;51.280;7.148;2022-09-21T16:00:20;16.0;75.8
38221;DHT22;24023;51.280;7.148;2022-09-21T16:05:11;16.0;75.1
38221;DHT22;24023;51.280;7.148;2022-09-21T16:10:37;15.9;77.6
38221;DHT22;24023;51.280;7.148;2022-09-21T16:15:17;15.6;82.2
38221;DHT22;24023;51.280;7.148;2022-09-21T16:20:19;15.5;81.2
38221;DHT22;24023;51.280;7.148;2022-09-21T16:25:19;15.4;82.8
38221;DHT22;24023;51.280;7.148;2022-09-21T16:30:38;15.4;82.8
38221;DHT22;24023;51.280;7.148;2022-09-21T16:35:26;15.5;82.3
38221;DHT22;24023;51.280;7.148;2022-09-21T16:40:09;15.5;82.3
38221;DHT22;24023;51.280;7.148;2022-09-21T16:45:28;15.4;85.1
38221;DHT22;24023;51.280;7.148;2022-09-21T16:50:11;15.4;85.1
38221;DHT22;24023;51.280;7.148;2022-09-21T16:55:07;15.1;87.2
38221;DHT22;24023;51.280;7.148;2022-09-21T17:00:12;14.7;87.4
38221;DHT22;24023;51.280;7.148;2022-09-21T17:05:07;14.7;90.0
38221;DHT22;24023;51.280;7.148;2022-09-21T17:10:12;14.7;90.0
38221;DHT22;24023;51.280;7.148;2022-09-21T17:15:10;14.0;91.1
38221;DHT22;24023;51.280;7.148;2022-09-21T17:20:19;14.0;91.1
38221;DHT22;24023;51.280;7.148;2022-09-21T17:25:07;14.0;91.1
38221;DHT22;24023;51.280;7.148;2022-09-21T17:30:12;13.9;91.9
38221;DHT22;24023;51.280;7.148;2022-09-21T17:35:14;13.9;91.9
38221;DHT22;24023;51.280;7.148;2022-09-21T17:40:09;13.7;92.5
38221;DHT22;24023;51.280;7.148;2022-09-21T17:45:17;13.7;92.5
38221;DHT22;24023;51.280;7.148;2022-09-21T17:50:20;13.4;93.0
38221;DHT22;24023;51.280;7.148;2022-09-21T17:55:10;13.4;93.0
38221;DHT22;24023;51.280;7.148;2022-09-21T18:00:16;13.4;93.0
38221;DHT22;24023;51.280;7.148;2022-09-21T18:05:16;13.0;93.2
38221;DHT22;24023;51.280;7.148;2022-09-21T18:10:11;12.9;92.9
38221;DHT22;24023;51.280;7.148;2022-09-21T18:15:14;12.9;92.9
38221;DHT22;24023;51.280;7.148;2022-09-21T18:20:17;12.5;94.2
38221;DHT22;24023;51.280;7.148;2022-09-21T18:25:13;12.5;94.2
38221;DHT22;24023;51.280;7.148;2022-09-21T18:30:11;12.8;93.2
38221;DHT22;24023;51.280;7.148;2022-09-21T18:35:18;12.8;93.2
38221;DHT22;24023;51.280;7.148;2022-09-21T18:40:14;12.4;94.3
38221;DHT22;24023;51.280;7.148;2022-09-21T18:45:13;12.4;94.3
38221;DHT22;24023;51.280;7.148;2022-09-21T18:50:18;12.4;94.3
38221;DHT22;24023;51.280;7.148;2022-09-21T18:55:15;12.0;94.6
38221;DHT22;24023;51.280;7.148;2022-09-21T19:00:14;12.0;94.6
38221;DHT22;24023;51.280;7.148;2022-09-21T19:05:10;11.9;94.8
38221;DHT22;24023;51.280;7.148;2022-09-21T19:10:13;11.9;94.8
38221;DHT22;24023;51.280;7.148;2022-09-21T19:15:16;11.9;94.8
38221;DHT22;24023;51.280;7.148;2022-09-21T19:20:21;12.0;94.6
38221;DHT22;24023;51.280;7.148;2022-09-21T19:25:14;12.0;94.6
38221;DHT22;24023;51.280;7.148;2022-09-21T19:30:13;11.8;95.7
38221;DHT22;24023;51.280;7.148;2022-09-21T19:35:17;11.8;95.7
38221;DHT22;24023;51.280;7.148;2022-09-21T19:40:09;11.8;96.2
38221;DHT22;24023;51.280;7.148;2022-09-21T19:45:17;11.8;96.2
38221;DHT22;24023;51.280;7.148;2022-09-21T19:50:14;11.7;96.4
38221;DHT22;24023;51.280;7.148;2022-09-21T20:00:14;11.7;96.4
38221;DHT22;24023;51.280;7.148;2022-09-21T20:05:11;11.4;96.7
38221;DHT22;24023;51.280;7.148;2022-09-21T20:11:17;11.4;96.7
38221;DHT22;24023;51.280;7.148;2022-09-21T20:15:12;11.3;97.5
38221;DHT22;24023;51.280;7.148;2022-09-21T20:20:13;11.3;97.5
38221;DHT22;24023;51.280;7.148;2022-09-21T20:25:14;11.3;97.5
38221;DHT22;24023;51.280;7.148;2022-09-21T20:30:13;11.4;97.1
38221;DHT22;24023;51.280;7.148;2022-09-21T20:35:11;11.4;97.1
38221;DHT22;24023;51.280;7.148;2022-09-21T20:40:09;11.2;97.1
38221;DHT22;24023;51.280;7.148;2022-09-21T20:45:11;11.2;97.1
38221;DHT22;24023;51.280;7.148;2022-09-21T20:50:11;11.1;97.4
38221;DHT22;24023;51.280;7.148;2022-09-21T20:55:09;11.1;97.4
38221;DHT22;24023;51.280;7.148;2022-09-21T21:00:13;11.1;97.4
38221;DHT22;24023;51.280;7.148;2022-09-21T21:05:08;11.3;97.2
38221;DHT22;24023;51.280;7.148;2022-09-21T21:10:11;11.3;97.2
38221;DHT22;24023;51.280;7.148;2022-09-21T21:15:08;10.7;97.4
38221;DHT22;24023;51.280;7.148;2022-09-21T21:20:09;10.7;97.4
38221;DHT22;24023;51.280;7.148;2022-09-21T21:25:08;10.7;97.4
38221;DHT22;24023;51.280;7.148;2022-09-21T21:30:10;10.8;97.9
38221;DHT22;24023;51.280;7.148;2022-09-21T21:35:08;10.8;97.9
38221;DHT22;24023;51.280;7.148;2022-09-21T21:40:09;10.8;98.0
38221;DHT22;24023;51.280;7.148;2022-09-21T21:45:10;10.8;98.0
38221;DHT22;24023;51.280;7.148;2022-09-21T21:50:09;10.8;98.0
38221;DHT22;24023;51.280;7.148;2022-09-21T21:55:08;10.8;98.1
38221;DHT22;24023;51.280;7.148;2022-09-21T22:00:14;10.8;98.1
38221;DHT22;24023;51.280;7.148;2022-09-21T22:05:08;10.7;97.9
38221;DHT22;24023;51.280;7.148;2022-09-21T22:10:09;10.7;97.9
38221;DHT22;24023;51.280;7.148;2022-09-21T22:15:09;10.7;97.9
38221;DHT22;24023;51.280;7.148;2022-09-21T22:20:08;10.8;97.7
38221;DHT22;24023;51.280;7.148;2022-09-21T22:25:08;10.8;97.7
38221;DHT22;24023;51.280;7.148;2022-09-21T22:30:10;10.8;97.9
38221;DHT22;24023;51.280;7.148;2022-09-21T22:35:06;10.8;97.9
38221;DHT22;24023;51.280;7.148;2022-09-21T22:40:09;10.9;97.4
38221;DHT22;24023;51.280;7.148;2022-09-21T22:45:11;10.9;97.4
38221;DHT22;24023;51.280;7.148;2022-09-21T22:50:08;10.9;97.4
38221;DHT22;24023;51.280;7.148;2022-09-21T22:55:07;10.8;97.5
38221;DHT22;24023;51.280;7.148;2022-09-21T23:00:12;10.8;97.5
38221;DHT22;24023;51.280;7.148;2022-09-21T23:05:07;10.8;97.3
38221;DHT22;24023;51.280;7.148;2022-09-21T23:10:08;10.8;97.3
38221;DHT22;24023;51.280;7.148;2022-09-21T23:15:08;10.8;97.3
38221;DHT22;24023;51.280;7.148;2022-09-21T23:20:09;10.7;97.7
38221;DHT22;24023;51.280;7.148;2022-09-21T23:25:07;10.7;97.7
38221;DHT22;24023;51.280;7.148;2022-09-21T23:30:10;11.0;97.0
38221;DHT22;24023;51.280;7.148;2022-09-21T23:35:06;11.0;97.0
38221;DHT22;24023;51.280;7.148;2022-09-21T23:40:09;11.0;97.0
38221;DHT22;24023;51.280;7.148;2022-09-21T23:45:09;11.0;97.1
38221;DHT22;24023;51.280;7.148;2022-09-21T23:50:09;11.0;97.1
38221;DHT22;24023;51.280;7.148;2022-09-21T23:55:07;10.9;97.2
